createdAt,value
2023-04-16T00:01:38.873Z,3.40
2023-04-16T00:04:42.976Z,3.30
2023-04-16T00:07:47.103Z,3.70
2023-04-16T00:10:53.346Z,4.00
2023-04-16T00:13:57.261Z,3.10
2023-04-16T00:17:01.257Z,3.50
2023-04-16T00:20:06.633Z,4.00
2023-04-16T00:23:10.869Z,3.90
2023-04-16T00:26:14.883Z,3.30
2023-04-16T00:29:19.407Z,3.70
2023-04-16T00:32:23.458Z,3.90
2023-04-16T00:35:27.585Z,3.50
2023-04-16T00:38:32.747Z,3.40
2023-04-16T00:41:38.408Z,4.30
2023-04-16T00:44:42.760Z,3.90
2023-04-16T00:47:47.072Z,3.80
2023-04-16T00:50:51.096Z,3.90
2023-04-16T00:53:55.518Z,4.00
2023-04-16T00:57:00.190Z,4.10
2023-04-16T01:00:05.056Z,3.70
2023-04-16T01:03:10.647Z,4.00
2023-04-16T01:06:16.911Z,3.70
2023-04-16T01:09:21.234Z,4.00
2023-04-16T01:12:25.565Z,3.70
2023-04-16T01:15:29.608Z,3.80
2023-04-16T01:18:34.471Z,4.30
2023-04-16T01:21:38.543Z,4.80
2023-04-16T01:24:42.528Z,3.80
2023-04-16T01:27:50.969Z,3.80
2023-04-16T01:30:54.983Z,4.30
2023-04-16T01:34:28.342Z,4.70
2023-04-16T01:37:32.516Z,4.70
2023-04-16T01:40:37.747Z,4.20
2023-04-16T01:43:42.701Z,4.40
2023-04-16T01:46:46.720Z,4.40
2023-04-16T01:49:51.321Z,4.10
2023-04-16T01:52:55.560Z,3.90
2023-04-16T01:55:59.593Z,4.60
2023-04-16T01:59:03.614Z,4.60
2023-04-16T02:02:15.331Z,4.70
2023-04-16T02:05:19.387Z,4.10
2023-04-16T02:08:24.340Z,4.80
2023-04-16T02:11:28.671Z,5.20
2023-04-16T02:14:33.881Z,5.60
2023-04-16T02:17:38.154Z,5.10
2023-04-16T02:20:47.422Z,5.60
2023-04-16T02:23:52.056Z,6.30
2023-04-16T02:27:00.204Z,5.30
2023-04-16T02:30:05.581Z,6.00
2023-04-16T02:33:12.228Z,5.40
2023-04-16T02:36:18.495Z,6.30
2023-04-16T02:39:22.626Z,5.80
2023-04-16T02:42:26.594Z,6.90
2023-04-16T02:45:32.079Z,6.60
2023-04-16T02:48:36.190Z,6.90
2023-04-16T02:51:40.160Z,6.00
2023-04-16T02:54:44.128Z,6.80
2023-04-16T02:57:48.254Z,6.00
2023-04-16T03:00:53.654Z,7.30
2023-04-16T03:03:57.937Z,6.40
2023-04-16T03:07:01.976Z,7.40
2023-04-16T03:10:07.582Z,6.90
2023-04-16T03:13:11.562Z,6.50
2023-04-16T03:16:15.642Z,6.50
2023-04-16T03:19:19.816Z,7.20
2023-04-16T03:22:23.854Z,7.60
2023-04-16T03:25:27.807Z,8.00
2023-04-16T03:28:31.781Z,7.10
2023-04-16T03:31:36.355Z,7.80
2023-04-16T03:34:40.924Z,7.40
2023-04-16T03:37:44.959Z,6.80
2023-04-16T03:40:49.060Z,7.00
2023-04-16T03:43:53.094Z,6.50
2023-04-16T03:46:57.384Z,6.30
2023-04-16T03:50:01.747Z,6.10
2023-04-16T03:56:11.006Z,4.60
2023-04-16T03:59:15.311Z,6.20
2023-04-16T04:02:19.582Z,6.80
2023-04-16T04:08:29.104Z,6.30
2023-04-16T04:11:33.481Z,6.90
2023-04-16T04:14:39.964Z,6.30
2023-04-16T04:17:44.457Z,6.50
2023-04-16T04:20:49.537Z,5.70
2023-04-16T04:23:56.182Z,6.60
2023-04-16T04:27:01.789Z,6.30
2023-04-16T04:30:07.774Z,5.60
2023-04-16T04:33:11.788Z,5.70
2023-04-16T04:36:16.204Z,5.90
2023-04-16T04:39:21.754Z,5.90
2023-04-16T04:42:26.491Z,6.10
2023-04-16T04:45:32.249Z,5.30
2023-04-16T04:48:36.513Z,6.20
2023-04-16T04:51:40.787Z,6.30
2023-04-16T04:54:45.013Z,5.90
2023-04-16T04:57:49.790Z,6.00
2023-04-16T05:00:53.812Z,5.40
2023-04-16T05:03:57.814Z,7.00
2023-04-16T05:07:02.620Z,5.80
2023-04-16T05:10:07.810Z,5.80
2023-04-16T05:13:11.975Z,6.30
2023-04-16T05:16:16.306Z,6.70
2023-04-16T05:19:20.621Z,6.10
2023-04-16T05:22:24.674Z,6.70
2023-04-16T05:25:28.969Z,6.10
2023-04-16T05:28:32.979Z,6.40
2023-04-16T05:31:37.199Z,6.10
2023-04-16T05:34:41.298Z,5.00
2023-04-16T05:37:45.341Z,6.20
2023-04-16T05:40:49.602Z,5.60
2023-04-16T05:43:53.479Z,6.50
2023-04-16T05:46:57.414Z,5.60
2023-04-16T05:50:01.458Z,6.20
2023-04-16T05:53:07.451Z,5.40
2023-04-16T05:56:11.469Z,5.50
2023-04-16T05:59:15.493Z,6.40
2023-04-16T06:02:20.642Z,5.40
2023-04-16T06:05:27.154Z,4.50
2023-04-16T06:08:31.218Z,5.90
2023-04-16T06:11:36.408Z,5.90
2023-04-16T06:14:40.581Z,6.30
2023-04-16T06:17:44.659Z,5.20
2023-04-16T06:20:48.639Z,5.20
2023-04-16T06:23:52.623Z,4.90
2023-04-16T06:26:57.563Z,4.40
2023-04-16T06:30:01.527Z,4.80
2023-04-16T06:33:05.632Z,3.70
2023-04-16T06:36:09.702Z,4.40
2023-04-16T06:39:13.736Z,4.80
2023-04-16T06:42:17.849Z,4.40
2023-04-16T06:45:21.866Z,4.30
2023-04-16T06:48:25.961Z,4.60
2023-04-16T06:51:30.000Z,4.30
2023-04-16T06:54:34.122Z,3.60
2023-04-16T06:57:38.024Z,4.90
2023-04-16T07:00:42.310Z,4.90
2023-04-16T07:03:46.770Z,4.00
2023-04-16T07:09:55.067Z,4.40
2023-04-16T07:13:01.582Z,4.70
2023-04-16T07:16:05.997Z,3.50
2023-04-16T07:19:10.186Z,3.10
2023-04-16T07:22:14.358Z,4.20
2023-04-16T07:25:18.373Z,4.50
2023-04-16T07:28:22.391Z,4.70
2023-04-16T07:31:26.941Z,4.60
2023-04-16T07:34:31.142Z,4.70
2023-04-16T07:37:35.036Z,4.70
2023-04-16T07:40:39.066Z,4.50
2023-04-16T07:43:43.274Z,3.80
2023-04-16T07:46:47.796Z,4.20
2023-04-16T07:49:52.463Z,4.20
2023-04-16T07:56:00.681Z,4.40
2023-04-16T07:59:18.318Z,4.50
2023-04-16T08:02:27.174Z,5.00
2023-04-16T08:05:31.320Z,4.60
2023-04-16T08:08:35.244Z,4.40
2023-04-16T08:11:39.196Z,5.00
2023-04-16T08:14:45.253Z,4.20
2023-04-16T08:17:49.203Z,3.60
2023-04-16T08:20:53.377Z,4.80
2023-04-16T08:23:57.475Z,4.20
2023-04-16T08:27:15.093Z,4.30
2023-04-16T08:30:22.394Z,4.40
2023-04-16T08:33:26.660Z,4.00
2023-04-16T08:36:31.378Z,4.60
2023-04-16T08:39:35.491Z,4.30
2023-04-16T08:42:58.368Z,4.30
2023-04-16T08:46:05.454Z,3.40
2023-04-16T08:49:17.961Z,4.80
2023-04-16T08:52:24.258Z,4.50
2023-04-16T08:55:38.000Z,4.60
2023-04-16T08:58:42.382Z,4.80
2023-04-16T09:01:49.452Z,4.60
2023-04-16T09:04:54.014Z,4.70
2023-04-16T09:07:58.137Z,4.00
2023-04-16T09:11:02.061Z,4.10
2023-04-16T09:14:10.571Z,3.50
2023-04-16T09:17:15.388Z,4.80
2023-04-16T09:20:20.142Z,4.50
2023-04-16T09:23:25.176Z,5.10
2023-04-16T09:26:29.502Z,4.70
2023-04-16T09:29:38.636Z,4.60
2023-04-16T09:32:42.638Z,4.70
2023-04-16T09:35:48.895Z,4.40
2023-04-16T09:38:54.966Z,5.00
2023-04-16T09:42:01.156Z,4.80
2023-04-16T09:45:06.407Z,5.10
2023-04-16T09:48:10.504Z,4.70
2023-04-16T09:51:14.419Z,4.40
2023-04-16T09:54:19.941Z,3.60
2023-04-16T09:57:24.888Z,4.50
2023-04-16T10:00:30.977Z,4.30
2023-04-16T10:03:37.875Z,4.50
2023-04-16T10:06:42.662Z,3.90
2023-04-16T10:09:48.753Z,4.30
2023-04-16T10:12:55.226Z,3.90
2023-04-16T10:16:00.600Z,4.20
2023-04-16T10:19:04.766Z,4.20
2023-04-16T10:22:09.010Z,3.70
2023-04-16T10:25:13.559Z,3.60
2023-04-16T10:28:17.608Z,3.90
2023-04-16T10:31:22.731Z,4.20
2023-04-16T10:34:29.018Z,4.20
2023-04-16T10:37:33.295Z,3.80
2023-04-16T10:40:37.406Z,3.90
2023-04-16T10:43:46.869Z,4.50
2023-04-16T10:46:50.812Z,3.80
2023-04-16T10:49:54.748Z,3.50
2023-04-16T10:53:17.835Z,4.00
2023-04-16T10:56:33.956Z,3.70
2023-04-16T10:59:39.708Z,3.40
2023-04-16T11:02:44.054Z,4.00
2023-04-16T11:05:48.457Z,4.10
2023-04-16T11:08:55.054Z,3.80
2023-04-16T11:12:21.558Z,3.60
2023-04-16T11:15:30.912Z,3.40
2023-04-16T11:18:36.270Z,4.80
2023-04-16T11:21:46.303Z,3.60
2023-04-16T11:24:56.124Z,3.90
2023-04-16T11:28:02.682Z,4.00
2023-04-16T11:31:12.124Z,3.70
2023-04-16T11:34:17.642Z,3.40
2023-04-16T11:37:32.714Z,3.10
2023-04-16T11:40:36.737Z,3.40
2023-04-16T11:43:40.733Z,3.50
2023-04-16T11:46:44.864Z,4.00
2023-04-16T11:49:48.984Z,3.40
2023-04-16T11:52:55.572Z,3.80
2023-04-16T11:55:59.597Z,3.50
2023-04-16T11:59:08.752Z,3.50
2023-04-16T12:02:13.103Z,4.10
2023-04-16T12:05:37.330Z,3.30
2023-04-16T12:08:42.742Z,3.70
2023-04-16T12:11:46.802Z,4.00
2023-04-16T12:14:52.080Z,4.10
2023-04-16T12:18:09.550Z,3.60
2023-04-16T12:21:13.585Z,4.10
2023-04-16T12:24:24.189Z,4.20
2023-04-16T12:27:45.588Z,3.70
2023-04-16T12:30:53.135Z,3.70
2023-04-16T12:34:03.585Z,3.90
2023-04-16T12:40:13.761Z,3.60
2023-04-16T12:43:18.055Z,3.20
2023-04-16T12:49:26.171Z,3.80
2023-04-16T12:52:30.302Z,4.30
2023-04-16T12:55:34.343Z,3.70
2023-04-16T12:58:38.333Z,4.50
2023-04-16T13:01:42.299Z,3.70
2023-04-16T13:04:46.303Z,4.00
2023-04-16T13:07:50.674Z,4.00
2023-04-16T13:10:55.371Z,4.20
2023-04-16T13:13:59.539Z,4.00
2023-04-16T13:17:04.276Z,3.70
2023-04-16T13:20:09.373Z,5.10
2023-04-16T13:23:13.533Z,4.40
2023-04-16T13:26:17.503Z,4.40
2023-04-16T13:29:21.444Z,4.00
2023-04-16T13:32:25.522Z,4.30
2023-04-16T13:35:31.039Z,4.70
2023-04-16T13:38:35.005Z,4.40
2023-04-16T13:41:39.424Z,4.20
2023-04-16T13:47:48.507Z,4.20
2023-04-16T13:50:52.541Z,4.20
2023-04-16T13:53:56.565Z,3.90
2023-04-16T13:57:00.671Z,4.40
2023-04-16T14:00:05.779Z,4.00
2023-04-16T14:03:09.914Z,4.70
2023-04-16T14:06:15.072Z,4.20
2023-04-16T14:09:18.977Z,4.20
2023-04-16T14:12:22.983Z,4.70
2023-04-16T14:15:29.067Z,3.60
2023-04-16T14:18:33.088Z,3.80
2023-04-16T14:21:37.106Z,4.70
2023-04-16T14:24:41.029Z,3.50
2023-04-16T14:27:45.038Z,3.80
2023-04-16T14:30:48.964Z,4.00
2023-04-16T14:33:53.296Z,4.30
2023-04-16T14:36:57.189Z,3.70
2023-04-16T14:40:01.530Z,3.60
2023-04-16T14:46:09.973Z,3.70
2023-04-16T14:52:18.903Z,3.40
2023-04-16T14:55:23.016Z,4.10
2023-04-16T14:58:27.267Z,3.60
2023-04-16T15:01:32.308Z,3.60
2023-04-16T15:04:36.382Z,3.90
2023-04-16T15:07:40.426Z,3.50
2023-04-16T15:10:45.856Z,3.50
2023-04-16T15:13:49.819Z,7.30
2023-04-16T15:16:54.061Z,4.70
2023-04-16T15:23:02.025Z,3.30
2023-04-16T15:26:06.249Z,9.20
2023-04-16T15:29:10.493Z,5.80
2023-04-16T15:32:14.425Z,4.90
2023-04-16T15:35:18.505Z,4.40
2023-04-16T15:38:22.517Z,5.20
2023-04-16T15:41:29.316Z,4.30
2023-04-16T15:44:34.297Z,4.60
2023-04-16T15:47:40.204Z,3.60
2023-04-16T15:50:45.827Z,4.20
2023-04-16T15:53:50.514Z,5.30
2023-04-16T15:56:54.494Z,6.30
2023-04-16T16:00:07.017Z,6.00
2023-04-16T16:03:12.176Z,5.70
2023-04-16T16:06:17.913Z,6.20
2023-04-16T16:09:26.358Z,4.60
2023-04-16T16:12:30.531Z,5.90
2023-04-16T16:15:35.208Z,6.60
2023-04-16T16:18:39.158Z,7.00
2023-04-16T16:21:43.121Z,7.50
2023-04-16T16:24:53.400Z,6.60
2023-04-16T16:31:03.905Z,6.60
2023-04-16T16:34:07.912Z,6.50
2023-04-16T16:37:11.890Z,5.50
2023-04-16T16:40:16.323Z,5.60
2023-04-16T16:46:24.627Z,5.70
2023-04-16T16:49:28.586Z,6.20
2023-04-16T16:52:32.584Z,7.50
2023-04-16T16:55:36.598Z,6.30
2023-04-16T16:58:40.723Z,9.20
2023-04-16T17:01:44.731Z,13.60
2023-04-16T17:04:49.084Z,13.60
2023-04-16T17:10:56.987Z,8.50
2023-04-16T17:14:01.006Z,7.70
2023-04-16T17:17:05.023Z,8.60
2023-04-16T17:20:10.857Z,7.70
2023-04-16T17:23:14.894Z,7.60
2023-04-16T17:26:19.232Z,6.20
2023-04-16T17:29:26.229Z,5.80
2023-04-16T17:32:32.539Z,7.40
2023-04-16T17:35:37.002Z,5.90
2023-04-16T17:38:44.283Z,6.40
2023-04-16T17:41:54.301Z,5.90
2023-04-16T17:44:58.371Z,6.60
2023-04-16T17:48:02.665Z,7.10
2023-04-16T17:54:17.375Z,5.80
2023-04-16T17:57:21.285Z,6.20
2023-04-16T18:00:25.521Z,6.30
2023-04-16T18:03:29.793Z,6.40
2023-04-16T18:09:37.838Z,5.80
2023-04-16T18:12:41.777Z,5.80
2023-04-16T18:15:45.824Z,6.70
2023-04-16T18:18:49.912Z,5.50
2023-04-16T18:21:54.596Z,6.30
2023-04-16T18:24:58.665Z,6.40
2023-04-16T18:28:03.915Z,5.50
2023-04-16T18:31:08.110Z,6.30
2023-04-16T18:34:12.540Z,6.40
2023-04-16T18:37:17.470Z,3.60
2023-04-16T18:40:21.418Z,5.70
2023-04-16T18:43:25.717Z,3.70
2023-04-16T18:46:29.757Z,6.90
2023-04-16T18:49:33.851Z,7.20
2023-04-16T18:52:37.868Z,6.80
2023-04-16T18:55:41.985Z,6.30
2023-04-16T18:58:46.100Z,6.00
2023-04-16T19:01:50.136Z,8.70
2023-04-16T19:04:54.143Z,7.90
2023-04-16T19:07:58.132Z,7.70
2023-04-16T19:11:02.103Z,8.60
2023-04-16T19:14:07.825Z,8.30
2023-04-16T19:17:12.364Z,7.60
2023-04-16T19:20:16.484Z,8.80
2023-04-16T19:23:21.305Z,8.20
2023-04-16T19:26:25.338Z,8.00
2023-04-16T19:29:34.050Z,7.90
2023-04-16T19:32:38.297Z,8.70
2023-04-16T19:35:43.332Z,9.50
2023-04-16T19:38:47.266Z,9.60
2023-04-16T19:41:51.156Z,8.90
2023-04-16T19:44:55.147Z,5.50
2023-04-16T19:47:59.215Z,8.80
2023-04-16T19:51:04.008Z,9.30
2023-04-16T19:54:08.124Z,9.80
2023-04-16T19:57:12.134Z,9.60
2023-04-16T20:00:17.121Z,10.40
2023-04-16T20:03:21.119Z,9.30
2023-04-16T20:06:26.441Z,8.90
2023-04-16T20:09:30.633Z,9.50
2023-04-16T20:12:34.671Z,9.10
2023-04-16T20:15:38.676Z,9.80
2023-04-16T20:18:42.898Z,9.30
2023-04-16T20:21:47.033Z,9.40
2023-04-16T20:24:54.968Z,8.30
2023-04-16T20:27:58.943Z,10.90
2023-04-16T20:31:03.107Z,10.10
2023-04-16T20:34:07.111Z,9.70
2023-04-16T20:37:11.094Z,9.70
2023-04-16T20:40:16.570Z,8.30
2023-04-16T20:43:22.183Z,8.10
2023-04-16T20:46:30.218Z,9.40
2023-04-16T20:49:38.544Z,9.10
2023-04-16T20:52:42.742Z,9.70
2023-04-16T20:55:46.632Z,9.70
2023-04-16T20:58:50.674Z,9.50
2023-04-16T21:01:54.971Z,9.20
2023-04-16T21:08:03.148Z,9.70
2023-04-16T21:11:07.054Z,10.30
2023-04-16T21:14:11.475Z,9.50
2023-04-16T21:17:15.367Z,10.30
2023-04-16T21:20:19.302Z,8.70
2023-04-16T21:23:23.307Z,10.70
2023-04-16T21:26:27.352Z,9.40
2023-04-16T21:29:31.346Z,10.20
2023-04-16T21:32:35.397Z,11.60
2023-04-16T21:35:39.362Z,10.90
2023-04-16T21:38:43.396Z,10.00
2023-04-16T21:41:47.840Z,10.30
2023-04-16T21:44:51.940Z,10.30
2023-04-16T21:47:56.003Z,9.50
2023-04-16T21:51:06.582Z,9.50
2023-04-16T21:54:10.951Z,10.50
2023-04-16T21:57:14.996Z,9.40
2023-04-16T22:00:19.460Z,10.60
2023-04-16T22:03:27.880Z,9.60
2023-04-16T22:06:34.702Z,11.40
2023-04-16T22:09:40.401Z,10.40
2023-04-16T22:12:45.684Z,10.40
2023-04-16T22:15:49.614Z,9.70
2023-04-16T22:18:55.080Z,11.50
2023-04-16T22:21:59.079Z,11.20
2023-04-16T22:25:03.584Z,10.70
2023-04-16T22:28:07.716Z,11.00
2023-04-16T22:31:11.936Z,10.40
2023-04-16T22:34:16.045Z,10.40
2023-04-16T22:37:20.067Z,10.70
2023-04-16T22:40:24.189Z,11.70
2023-04-16T22:43:28.097Z,11.50
2023-04-16T22:46:32.614Z,10.70
2023-04-16T22:52:40.759Z,11.20
2023-04-16T22:55:45.018Z,11.50
2023-04-16T22:58:49.423Z,10.50
2023-04-16T23:01:53.457Z,10.60
2023-04-16T23:04:59.180Z,11.00
2023-04-16T23:08:03.104Z,12.00
2023-04-16T23:11:07.111Z,10.70
2023-04-16T23:14:11.072Z,10.20
2023-04-16T23:17:15.142Z,10.30
2023-04-16T23:20:19.259Z,11.00
2023-04-16T23:23:23.283Z,11.40
2023-04-16T23:26:27.188Z,11.90
2023-04-16T23:29:31.924Z,9.20
2023-04-16T23:32:36.093Z,10.40
2023-04-16T23:35:40.347Z,10.30
2023-04-16T23:38:44.379Z,10.60
2023-04-16T23:41:48.399Z,10.80
2023-04-16T23:44:52.310Z,10.20
2023-04-16T23:47:56.356Z,10.80
2023-04-16T23:51:00.747Z,11.90
2023-04-16T23:54:04.767Z,10.20
2023-04-16T23:57:08.783Z,11.70
